Time;durP1;ratioP1;P1;durP2;ratioP2;P2;SDS_P1;SDS_P2;PMS_P1;PMS_P2;Temp;Humidity;BMP_temperature;BMP_pressure;BME280_temperature;BME280_humidity;BME280_pressure;Samples;Min_cycle;Max_cycle;Signal;HPM_P1;HPM_P2
2022/01/07 00:00:19;;;;;;;178.60;151.73;;;;;;;15.44;31.67;93893.59;4986393;28;20105;-69
2022/01/07 00:03:05;;;;;;;179.68;151.80;;;;;;;15.43;31.75;93892.09;4985637;28;20085;-69
2022/01/07 00:05:30;;;;;;;171.38;144.02;;;;;;;15.40;31.86;93882.94;4982250;28;20108;-69
2022/01/07 00:07:56;;;;;;;169.70;143.80;;;;;;;15.42;31.75;93888.63;4986284;28;20309;-69
2022/01/07 00:10:22;;;;;;;170.88;144.02;;;;;;;15.42;31.81;93890.56;4988146;28;20046;-69
2022/01/07 00:12:49;;;;;;;170.65;143.85;;;;;;;15.41;31.75;93887.13;4983696;28;20097;-70
2022/01/07 00:15:16;;;;;;;166.43;140.95;;;;;;;15.40;31.69;93887.56;4979816;28;20050;-68
2022/01/07 00:17:43;;;;;;;180.48;151.93;;;;;;;15.38;31.71;93877.22;4976991;28;20458;-68
2022/01/07 00:20:10;;;;;;;178.65;150.30;;;;;;;15.38;31.77;93879.91;4980776;28;20142;-69
2022/01/07 00:22:37;;;;;;;170.20;143.88;;;;;;;15.39;31.85;93880.69;4978152;28;20038;-69
2022/01/07 00:25:04;;;;;;;167.45;142.40;;;;;;;15.38;31.70;93874.53;4979520;28;20108;-69
2022/01/07 00:27:29;;;;;;;166.20;140.75;;;;;;;15.39;31.69;93877.97;4975763;28;20618;-69
2022/01/07 00:29:55;;;;;;;169.07;143.20;;;;;;;15.39;31.76;93876.03;4976882;28;20117;-69
2022/01/07 00:32:20;;;;;;;170.95;144.48;;;;;;;15.39;31.66;93886.06;4978509;28;20853;-68
2022/01/07 00:34:46;;;;;;;178.45;151.23;;;;;;;15.40;31.76;93876.78;4976357;28;20049;-69
2022/01/07 00:37:12;;;;;;;177.85;150.25;;;;;;;15.40;31.72;93871.41;4977970;28;20085;-69
2022/01/07 00:39:38;;;;;;;169.77;143.45;;;;;;;15.39;31.80;93875.28;4977332;28;20069;-69
2022/01/07 00:42:04;;;;;;;170.45;142.77;;;;;;;15.37;31.68;93867.63;4976180;28;20053;-68
2022/01/07 00:44:29;;;;;;;168.88;141.90;;;;;;;15.38;31.97;93868.41;4982597;28;20050;-69
2022/01/07 00:46:55;;;;;;;175.50;149.10;;;;;;;15.38;31.97;93873.78;4974512;28;20423;-68
2022/01/07 00:49:22;;;;;;;176.52;150.10;;;;;;;15.38;32.30;93868.41;4972399;28;20058;-69
2022/01/07 00:51:49;;;;;;;170.75;145.02;;;;;;;15.38;31.98;93863.00;4975563;28;20053;-69
2022/01/07 00:54:16;;;;;;;178.85;148.75;;;;;;;15.37;32.13;93867.63;4973489;28;20079;-68
2022/01/07 00:56:41;;;;;;;169.13;141.57;;;;;;;15.37;32.06;93864.94;4975209;28;20120;-70
2022/01/07 00:59:07;;;;;;;168.68;141.20;;;;;;;15.36;32.21;93866.13;4982133;28;20457;-69
2022/01/07 01:01:33;;;;;;;174.23;147.10;;;;;;;15.37;32.00;93862.25;4980621;28;20050;-69
2022/01/07 01:03:58;;;;;;;171.30;144.55;;;;;;;15.36;32.25;93860.75;4980122;28;20462;-69
2022/01/07 01:06:24;;;;;;;170.50;143.65;;;;;;;15.35;32.18;93859.25;4973625;28;20051;-69
2022/01/07 01:08:50;;;;;;;171.35;143.95;;;;;;;15.37;32.19;93861.50;4973502;28;20487;-69
2022/01/07 01:11:15;;;;;;;177.60;149.48;;;;;;;15.37;32.23;93858.81;4987004;28;20072;-69
2022/01/07 01:13:41;;;;;;;172.55;145.93;;;;;;;15.35;32.10;93858.50;4980328;28;20052;-69
2022/01/07 01:16:07;;;;;;;169.18;142.45;;;;;;;15.35;32.25;93861.94;4987199;28;20065;-69
2022/01/07 01:18:32;;;;;;;164.45;138.60;;;;;;;15.34;32.31;93862.38;4986177;28;20621;-69
2022/01/07 01:20:58;;;;;;;176.48;149.25;;;;;;;15.33;32.32;93855.47;4994419;28;20042;-69
2022/01/07 01:23:24;;;;;;;170.55;143.23;;;;;;;15.34;32.06;93851.59;4976384;28;20121;-68
2022/01/07 01:25:51;;;;;;;174.90;146.88;;;;;;;15.32;32.25;93853.97;4973101;28;20073;-68
2022/01/07 01:28:18;;;;;;;176.52;147.32;;;;;;;15.32;32.00;93854.72;4976453;28;20061;-69
2022/01/07 01:30:43;;;;;;;168.50;140.10;;;;;;;15.32;31.87;93853.97;4978903;28;20515;-69
2022/01/07 01:33:12;;;;;;;171.18;145.38;;;;;;;15.30;31.94;93848.28;4984707;28;20047;-69
2022/01/07 01:35:41;;;;;;;171.13;143.20;;;;;;;15.31;32.02;93847.09;4981077;28;20066;-69
2022/01/07 01:38:07;;;;;;;171.55;144.43;;;;;;;15.30;32.00;93842.91;4976569;28;20039;-69
2022/01/07 01:40:33;;;;;;;172.27;146.63;;;;;;;15.30;32.09;93835.56;4981474;28;20422;-69
2022/01/07 01:43:00;;;;;;;174.07;146.52;;;;;;;15.29;32.07;93839.44;4983982;28;20047;-69
2022/01/07 01:45:27;;;;;;;169.75;142.23;;;;;;;15.29;31.95;93836.00;4983808;28;20030;-69
2022/01/07 01:47:54;;;;;;;171.07;144.10;;;;;;;15.27;32.14;93827.59;4978129;28;20049;-69
2022/01/07 01:50:20;;;;;;;171.85;144.60;;;;;;;15.28;31.84;93823.72;4981159;28;20063;-69
2022/01/07 01:52:49;;;;;;;174.90;147.27;;;;;;;15.27;31.84;93819.53;4979046;28;20058;-69
2022/01/07 01:55:17;;;;;;;171.95;145.02;;;;;;;15.26;32.00;93821.47;4978153;28;20550;-69
2022/01/07 01:57:43;;;;;;;181.38;153.35;;;;;;;15.26;31.78;93812.63;4978646;28;20133;-69
2022/01/07 02:00:09;;;;;;;170.98;144.27;;;;;;;15.25;31.73;93811.13;4981430;28;20053;-68
2022/01/07 02:02:36;;;;;;;175.02;145.57;;;;;;;15.24;31.90;93815.00;4978567;28;20109;-68
2022/01/07 02:05:03;;;;;;;170.52;143.43;;;;;;;15.23;31.72;93805.44;4988223;28;20050;-69
2022/01/07 02:07:28;;;;;;;169.82;142.52;;;;;;;15.21;31.69;93800.47;4979605;28;20766;-69
2022/01/07 02:09:55;;;;;;;170.00;142.40;;;;;;;15.22;31.59;93799.28;4984691;28;20043;-68
2022/01/07 02:12:21;;;;;;;174.35;146.40;;;;;;;15.22;31.76;93799.28;4982967;28;20509;-69
2022/01/07 02:14:56;;;;;;;182.35;154.35;;;;;;;15.20;31.80;93798.97;4976296;28;20049;-69
2022/01/07 02:17:23;;;;;;;172.45;145.10;;;;;;;15.20;31.68;93792.84;4976895;28;20069;-69
2022/01/07 02:19:49;;;;;;;174.57;145.50;;;;;;;15.19;31.50;93786.69;4978295;28;20042;-69
2022/01/07 02:22:17;;;;;;;179.60;149.40;;;;;;;15.19;31.60;93791.34;4975979;28;20384;-69
2022/01/07 02:24:47;;;;;;;175.82;146.45;;;;;;;15.19;31.79;93794.78;4983222;28;20432;-69
2022/01/07 02:27:14;;;;;;;174.57;146.48;;;;;;;15.18;31.60;93779.81;4981226;28;20180;-69
2022/01/07 02:29:41;;;;;;;171.20;143.27;;;;;;;15.18;31.59;93784.44;4977063;28;20039;-69
2022/01/07 02:32:07;;;;;;;170.30;142.15;;;;;;;15.18;31.29;93787.91;4988419;28;20050;-69
2022/01/07 02:34:33;;;;;;;170.60;141.45;;;;;;;15.17;31.48;93781.00;4992165;28;20038;-69
2022/01/07 02:36:58;;;;;;;172.50;144.20;;;;;;;15.16;31.40;93776.81;4977649;28;20085;-69
2022/01/07 02:39:24;;;;;;;172.13;142.82;;;;;;;15.15;31.52;93776.06;4986584;28;20042;-69
2022/01/07 02:41:50;;;;;;;173.77;143.98;;;;;;;15.14;31.61;93771.88;4981310;28;20469;-69
2022/01/07 02:44:15;;;;;;;173.38;144.77;;;;;;;15.13;31.42;93770.34;4972077;28;20465;-69
2022/01/07 02:46:41;;;;;;;179.02;149.63;;;;;;;15.13;31.42;93769.59;4977903;28;20153;-69
2022/01/07 02:49:09;;;;;;;177.77;148.50;;;;;;;15.11;31.54;93767.34;4979812;28;20078;-69
2022/01/07 02:51:34;;;;;;;169.88;140.90;;;;;;;15.12;31.53;93770.78;4976371;28;20062;-68
2022/01/07 02:54:00;;;;;;;171.10;142.30;;;;;;;15.11;31.20;93769.28;4975414;28;20051;-69
2022/01/07 02:56:25;;;;;;;169.32;138.98;;;;;;;15.10;31.46;93767.78;4974324;28;20043;-69
2022/01/07 02:58:51;;;;;;;176.07;145.95;;;;;;;15.09;31.24;93769.72;4975191;28;20078;-68
2022/01/07 03:01:16;;;;;;;171.10;141.65;;;;;;;15.07;31.03;93776.75;4980286;28;20050;-69
2022/01/07 03:03:42;;;;;;;175.27;145.23;;;;;;;15.05;31.20;93779.13;4979669;28;20109;-70
2022/01/07 03:06:08;;;;;;;172.95;141.98;;;;;;;15.04;31.06;93775.69;4986402;28;20050;-69
2022/01/07 03:08:33;;;;;;;171.07;141.80;;;;;;;15.06;30.98;93769.88;4971336;28;20129;-69
2022/01/07 03:10:59;;;;;;;179.10;148.48;;;;;;;15.09;31.36;93772.44;4976146;28;20046;-69
2022/01/07 03:13:24;;;;;;;173.15;142.52;;;;;;;15.08;30.99;93776.31;4973133;28;20038;-69
2022/01/07 03:15:50;;;;;;;175.43;145.18;;;;;;;15.10;31.07;93781.25;4982915;28;20035;-69
2022/01/07 03:18:15;;;;;;;180.20;148.85;;;;;;;15.12;30.97;93771.56;4985093;28;20109;-69
2022/01/07 03:20:42;;;;;;;170.98;142.35;;;;;;;15.13;30.94;93766.91;4983708;28;20054;-68
2022/01/07 03:23:12;;;;;;;174.38;145.02;;;;;;;15.14;30.86;93769.16;4973494;28;20069;-68
2022/01/07 03:25:44;;;;;;;169.63;142.18;;;;;;;15.17;31.23;93759.47;4978332;28;20046;-69
2022/01/07 03:28:10;;;;;;;186.90;154.50;;;;;;;15.19;30.87;93761.72;4988305;28;20397;-69
2022/01/07 03:30:36;;;;;;;172.52;143.25;;;;;;;15.19;31.05;93754.38;4979246;28;20038;-69
2022/01/07 03:33:03;;;;;;;171.70;142.73;;;;;;;15.21;30.99;93762.03;4981948;28;20062;-69
2022/01/07 03:35:29;;;;;;;171.80;143.25;;;;;;;15.19;30.87;93759.75;4975752;28;20042;-69
2022/01/07 03:37:55;;;;;;;171.82;142.68;;;;;;;15.20;30.94;93776.69;4983136;28;20391;-69
2022/01/07 03:40:21;;;;;;;177.10;147.10;;;;;;;15.19;31.00;93765.16;4970415;28;20074;-69
2022/01/07 03:42:48;;;;;;;172.23;143.70;;;;;;;15.21;31.43;93768.16;4972577;28;20047;-69
2022/01/07 03:45:15;;;;;;;171.68;142.25;;;;;;;15.22;30.84;93774.28;4981669;28;20150;-69
2022/01/07 03:47:42;;;;;;;174.73;146.00;;;;;;;15.21;30.87;93772.78;4970491;28;20249;-69
2022/01/07 03:50:11;;;;;;;172.55;143.02;;;;;;;15.20;30.98;93769.34;4973871;28;20495;-69
2022/01/07 03:52:38;;;;;;;171.82;143.18;;;;;;;15.20;30.81;93760.50;4977713;28;20049;-70
2022/01/07 03:55:07;;;;;;;171.95;142.63;;;;;;;15.21;30.73;93760.06;4976743;28;20046;-69
2022/01/07 03:57:32;;;;;;;170.45;141.13;;;;;;;15.21;30.84;93760.06;4980999;28;20050;-69
2022/01/07 03:59:58;;;;;;;170.43;142.75;;;;;;;15.21;30.86;93762.03;4984589;28;20457;-68
2022/01/07 04:02:24;;;;;;;172.52;144.00;;;;;;;15.22;30.98;93758.88;4977955;28;20120;-69
2022/01/07 04:04:49;;;;;;;180.65;149.88;;;;;;;15.22;30.92;93752.75;4980021;28;20498;-69
2022/01/07 04:07:15;;;;;;;173.57;144.00;;;;;;;15.22;30.90;93740.03;4984275;28;20057;-69
2022/01/07 04:09:41;;;;;;;176.55;145.35;;;;;;;15.23;30.70;93735.38;4981391;28;20046;-69
2022/01/07 04:12:07;;;;;;;170.88;142.48;;;;;;;15.23;30.83;93732.69;4987324;28;20061;-69
2022/01/07 04:14:32;;;;;;;170.07;139.77;;;;;;;15.24;30.97;93734.94;4978798;28;20049;-69
2022/01/07 04:16:59;;;;;;;182.10;150.00;;;;;;;15.24;30.77;93734.19;4974070;28;20046;-69
2022/01/07 04:19:25;;;;;;;171.57;142.38;;;;;;;15.24;30.93;93732.25;4974785;28;20043;-69
2022/01/07 04:21:51;;;;;;;178.38;148.63;;;;;;;15.24;30.88;93734.94;4969270;28;20046;-69
2022/01/07 04:24:17;;;;;;;173.13;142.48;;;;;;;15.26;30.83;93729.88;4973813;28;20076;-69
2022/01/07 04:26:43;;;;;;;172.48;141.13;;;;;;;15.25;30.99;93736.44;4966741;28;20482;-68
2022/01/07 04:29:09;;;;;;;172.30;141.80;;;;;;;15.26;30.95;93737.97;4972363;28;20049;-68
2022/01/07 04:31:35;;;;;;;175.00;142.98;;;;;;;15.25;30.96;93743.78;4977826;28;20050;-68
2022/01/07 04:34:01;;;;;;;171.30;139.57;;;;;;;15.24;30.89;93734.94;4972331;28;20058;-69
2022/01/07 04:36:26;;;;;;;176.27;144.93;;;;;;;15.24;30.95;93734.94;4976932;28;20049;-69
2022/01/07 04:38:52;;;;;;;172.05;141.35;;;;;;;15.23;30.93;93732.69;4975830;28;20084;-69
2022/01/07 04:41:18;;;;;;;170.27;139.30;;;;;;;15.22;30.87;93734.63;4974757;28;20043;-69
2022/01/07 04:43:43;;;;;;;182.43;149.20;;;;;;;15.21;30.83;93737.78;4977929;28;20130;-69
2022/01/07 04:46:09;;;;;;;170.70;140.27;;;;;;;15.21;30.94;93740.47;4973101;28;20129;-69
2022/01/07 04:48:34;;;;;;;173.55;142.90;;;;;;;15.20;30.80;93733.59;4975128;28;20134;-69
2022/01/07 04:51:00;;;;;;;173.02;142.00;;;;;;;15.19;30.66;93734.78;4974567;28;20038;-68
2022/01/07 04:53:26;;;;;;;172.20;140.15;;;;;;;15.19;30.67;93737.47;4977392;28;20099;-68
2022/01/07 04:55:53;;;;;;;171.35;141.40;;;;;;;15.17;30.54;93740.59;4974364;28;20054;-69
2022/01/07 04:58:19;;;;;;;173.02;142.10;;;;;;;15.15;30.59;93732.97;4978531;28;20073;-69
2022/01/07 05:00:46;;;;;;;170.98;140.77;;;;;;;15.16;30.48;93742.53;4974343;28;20053;-69
2022/01/07 05:03:12;;;;;;;173.90;142.95;;;;;;;15.14;30.56;93746.88;4975037;28;20128;-69
2022/01/07 05:05:38;;;;;;;173.00;142.45;;;;;;;15.14;30.33;93746.88;4980126;28;20054;-68
2022/01/07 05:08:05;;;;;;;177.50;144.32;;;;;;;15.17;30.42;93743.28;4977842;28;20133;-69
2022/01/07 05:10:31;;;;;;;175.02;142.75;;;;;;;15.18;30.26;93738.66;4982188;28;20505;-68
2022/01/07 05:12:57;;;;;;;175.30;144.13;;;;;;;15.20;30.38;93738.97;4985354;28;20118;-69
2022/01/07 05:15:23;;;;;;;173.00;142.13;;;;;;;15.18;30.52;93741.34;4974773;28;20034;-68
2022/01/07 05:17:49;;;;;;;170.95;140.05;;;;;;;15.19;30.26;93754.38;4976123;28;20121;-69
2022/01/07 05:20:16;;;;;;;177.18;143.73;;;;;;;15.21;30.13;93752.00;4972558;28;20133;-69
2022/01/07 05:22:43;;;;;;;173.20;141.57;;;;;;;15.21;30.14;93748.56;4977423;28;20059;-69
2022/01/07 05:25:10;;;;;;;179.18;146.25;;;;;;;15.21;30.30;93754.69;4974603;28;20050;-69
2022/01/07 05:27:36;;;;;;;171.85;141.10;;;;;;;15.23;30.21;93746.16;4981093;28;20108;-69
2022/01/07 05:30:05;;;;;;;172.65;140.30;;;;;;;15.21;30.13;93746.59;4989286;28;20457;-70
2022/01/07 05:32:30;;;;;;;172.65;140.88;;;;;;;15.23;29.91;93748.84;4976791;28;20101;-69
2022/01/07 05:34:56;;;;;;;184.65;151.48;;;;;;;15.21;30.05;93743.91;4982402;28;20446;-69
2022/01/07 05:37:21;;;;;;;184.90;150.32;;;;;;;15.20;30.11;93742.41;4976292;28;20059;-70
2022/01/07 05:39:47;;;;;;;173.18;141.05;;;;;;;15.22;30.20;93741.97;4976615;28;20474;-69
2022/01/07 05:42:13;;;;;;;174.63;142.70;;;;;;;15.20;30.22;93744.34;4982531;28;20058;-70
2022/01/07 05:44:38;;;;;;;176.48;144.48;;;;;;;15.18;29.99;93752.88;4979812;28;20078;-69
2022/01/07 05:47:04;;;;;;;173.85;143.07;;;;;;;15.12;30.02;93755.38;4981423;28;21840;-69
2022/01/07 05:49:30;;;;;;;173.02;142.23;;;;;;;15.11;29.89;93747.75;4972893;28;20045;-69
2022/01/07 05:51:55;;;;;;;178.57;146.57;;;;;;;15.13;29.89;93740.72;4973212;28;20468;-68
2022/01/07 05:54:21;;;;;;;172.32;142.63;;;;;;;15.16;29.80;93737.16;4979885;28;20047;-69
2022/01/07 05:56:46;;;;;;;178.05;146.60;;;;;;;15.19;29.95;93740.16;4974671;28;20050;-69
2022/01/07 05:59:12;;;;;;;175.93;142.65;;;;;;;15.20;30.14;93747.81;4974444;28;20104;-69
2022/01/07 06:01:38;;;;;;;178.52;144.75;;;;;;;15.20;29.92;93736.28;4981326;28;20470;-69
2022/01/07 06:04:03;;;;;;;171.25;140.25;;;;;;;15.20;29.88;93755.88;4994783;28;20042;-69
2022/01/07 06:06:29;;;;;;;171.60;141.18;;;;;;;15.20;29.96;93755.13;4982169;28;20062;-69
2022/01/07 06:08:55;;;;;;;171.48;140.32;;;;;;;15.21;29.91;93746.59;4982291;28;20096;-69
2022/01/07 06:11:20;;;;;;;173.82;143.05;;;;;;;15.22;29.87;93741.97;4985200;28;20070;-69
2022/01/07 06:13:45;;;;;;;170.32;140.20;;;;;;;15.22;29.91;93752.75;4989037;28;20145;-69
2022/01/07 06:16:11;;;;;;;172.93;141.07;;;;;;;15.21;29.94;93760.06;4980969;28;20092;-69
2022/01/07 06:18:43;;;;;;;172.50;141.35;;;;;;;15.22;29.78;93750.81;4973402;28;20105;-69
2022/01/07 06:21:09;;;;;;;173.30;142.18;;;;;;;15.21;29.90;93746.59;4975482;28;20105;-69
2022/01/07 06:23:34;;;;;;;174.68;143.43;;;;;;;15.23;30.38;93748.84;4980869;28;20494;-69
2022/01/07 06:25:59;;;;;;;171.65;141.77;;;;;;;15.22;29.97;93761.56;4980435;28;20662;-69
2022/01/07 06:28:26;;;;;;;172.25;140.00;;;;;;;15.23;29.96;93760.38;4980034;28;20101;-69
2022/01/07 06:30:52;;;;;;;172.20;140.90;;;;;;;15.23;29.81;93756.94;4985125;28;20050;-71
2022/01/07 06:33:17;;;;;;;173.02;141.27;;;;;;;15.23;29.85;93754.25;4983128;28;20487;-70
2022/01/07 06:35:43;;;;;;;172.05;142.18;;;;;;;15.23;30.00;93763.09;4984188;28;20074;-68
2022/01/07 06:38:08;;;;;;;177.55;146.65;;;;;;;15.24;29.96;93769.22;4980201;28;21204;-70
2022/01/07 06:40:34;;;;;;;169.18;138.95;;;;;;;15.21;29.90;93765.47;4982970;28;20035;-67
2022/01/07 06:43:00;;;;;;;173.45;142.27;;;;;;;15.20;30.05;93776.69;4982262;28;20117;-67
2022/01/07 06:45:25;;;;;;;174.75;143.35;;;;;;;15.19;29.92;93775.19;4977658;28;20483;-67
2022/01/07 06:47:51;;;;;;;172.27;141.68;;;;;;;15.21;30.01;93778.19;4984760;28;20146;-68
2022/01/07 06:50:16;;;;;;;173.23;142.38;;;;;;;15.21;29.85;93786.25;4986704;28;20050;-68
2022/01/07 06:52:42;;;;;;;171.50;140.48;;;;;;;15.21;29.83;93781.63;4982576;28;20056;-69
2022/01/07 06:55:08;;;;;;;179.63;145.93;;;;;;;15.22;29.84;93777.75;4979039;28;20486;-71
2022/01/07 06:57:33;;;;;;;170.63;139.95;;;;;;;15.21;29.81;93783.56;4978105;28;20521;-70
2022/01/07 06:59:59;;;;;;;180.27;146.93;;;;;;;15.23;29.77;93791.97;4976897;28;20050;-67
2022/01/07 07:02:24;;;;;;;171.48;139.98;;;;;;;15.22;29.71;93791.22;4983404;28;20041;-68
2022/01/07 07:04:50;;;;;;;182.55;148.52;;;;;;;15.21;29.80;93792.41;4985325;28;20042;-67
2022/01/07 07:07:16;;;;;;;172.65;142.07;;;;;;;15.21;29.80;93797.78;4984384;28;20445;-66
2022/01/07 07:09:41;;;;;;;171.32;140.95;;;;;;;15.21;29.75;93797.03;4985426;28;20042;-67
2022/01/07 07:12:07;;;;;;;169.98;139.02;;;;;;;15.22;29.79;93799.28;4987900;28;20244;-67
2022/01/07 07:14:33;;;;;;;171.68;140.43;;;;;;;15.23;29.81;93800.03;4986413;28;20114;-67
2022/01/07 07:16:59;;;;;;;179.27;147.32;;;;;;;15.23;29.63;93794.66;4982782;28;20050;-69
2022/01/07 07:19:24;;;;;;;174.27;143.32;;;;;;;15.24;29.97;93791.53;4982387;28;20042;-68
2022/01/07 07:21:50;;;;;;;171.48;140.98;;;;;;;15.24;29.96;93783.44;4986599;28;20031;-67
2022/01/07 07:24:15;;;;;;;172.02;140.77;;;;;;;15.23;29.86;93784.63;4977211;28;20047;-69
2022/01/07 07:26:41;;;;;;;179.88;147.82;;;;;;;15.24;29.84;93783.44;4979835;28;20050;-66
2022/01/07 07:29:07;;;;;;;171.75;140.73;;;;;;;15.23;29.98;93776.56;4975520;28;20154;-65
2022/01/07 07:31:35;;;;;;;175.23;143.68;;;;;;;15.23;29.97;93783.88;4988018;28;21371;-66
2022/01/07 07:34:21;;;;;;;171.88;138.82;;;;;;;15.21;29.99;93772.78;4980909;28;20422;-66
2022/01/07 07:36:47;;;;;;;174.30;142.52;;;;;;;15.21;29.85;93784.31;4986903;28;20045;-66
2022/01/07 07:39:14;;;;;;;172.35;141.45;;;;;;;15.20;30.02;93787.44;4983261;28;20042;-67
2022/01/07 07:41:41;;;;;;;178.25;145.73;;;;;;;15.22;29.70;93782.38;4981628;28;20108;-66
2022/01/07 07:44:07;;;;;;;175.90;144.88;;;;;;;15.21;29.99;93781.63;4975399;28;20057;-66
2022/01/07 07:46:35;;;;;;;169.93;139.65;;;;;;;15.21;29.96;93778.94;4979822;28;20038;-66
2022/01/07 07:49:03;;;;;;;175.95;144.80;;;;;;;15.21;29.93;93773.53;4978942;28;20058;-66
2022/01/07 07:51:29;;;;;;;171.55;140.48;;;;;;;15.22;29.97;93777.00;4988041;28;20443;-66
2022/01/07 07:53:56;;;;;;;177.07;145.43;;;;;;;15.23;29.84;93778.50;4986893;28;20042;-66
2022/01/07 07:56:22;;;;;;;175.10;142.85;;;;;;;15.21;29.96;93778.94;4981234;28;20774;-66
2022/01/07 07:58:48;;;;;;;190.43;142.90;;;;;;;15.04;31.18;93785.72;4980195;28;20054;-69
2022/01/07 08:01:14;;;;;;;199.85;140.90;;;;;;;15.15;33.19;93783.38;4984189;28;20132;-65
2022/01/07 08:03:40;;;;;;;213.30;179.70;;;;;;;14.26;29.27;93781.09;4981364;28;20062;-72
2022/01/07 08:06:06;;;;;;;202.30;167.15;;;;;;;12.65;28.50;93778.19;4983160;28;20042;-66
2022/01/07 08:08:32;;;;;;;204.95;162.95;;;;;;;13.79;28.54;93779.09;4985080;28;20060;-66
2022/01/07 08:11:00;;;;;;;196.65;159.15;;;;;;;14.37;28.32;93781.44;4981755;28;20043;-66
2022/01/07 08:16:11;;;;;;;202.10;165.65;;;;;;;14.81;28.27;93768.09;4983025;28;20042;-66
2022/01/07 08:18:38;;;;;;;197.40;161.50;;;;;;;14.88;28.75;93769.78;4987453;28;20058;-66
2022/01/07 08:21:08;;;;;;;199.85;166.20;;;;;;;14.93;28.69;93766.50;4987461;28;20077;-66
2022/01/07 08:23:36;;;;;;;210.95;173.93;;;;;;;14.97;28.66;93767.13;4983503;28;20560;-66
2022/01/07 08:26:04;;;;;;;201.70;166.50;;;;;;;14.99;28.88;93772.81;4987111;28;20050;-66
2022/01/07 08:28:36;;;;;;;207.05;171.75;;;;;;;15.01;28.94;93768.50;4979080;28;20042;-65
2022/01/07 08:36:34;;;;;;;201.60;164.98;;;;;;;15.02;28.94;93772.69;4986588;28;20077;-66
2022/01/07 08:39:00;;;;;;;197.85;165.15;;;;;;;15.03;29.09;93768.81;4979898;28;20046;-66
2022/01/07 08:41:29;;;;;;;198.25;163.95;;;;;;;14.47;27.85;93769.63;4980623;28;20064;-65
2022/01/07 08:43:55;;;;;;;203.75;168.98;;;;;;;14.46;28.84;93768.09;4980645;28;20050;-66
2022/01/07 08:46:21;;;;;;;198.27;160.95;;;;;;;14.36;29.23;93766.50;4982752;28;20056;-67
2022/01/07 08:48:46;;;;;;;200.75;165.48;;;;;;;14.86;31.25;93769.47;4982442;28;21012;-68
2022/01/07 08:51:12;;;;;;;203.60;166.00;;;;;;;14.39;29.26;93771.00;4979716;28;20054;-67
2022/01/07 08:53:38;;;;;;;212.88;171.15;;;;;;;14.59;29.08;93767.31;4976222;28;20697;-66
2022/01/07 08:56:05;;;;;;;195.75;157.35;;;;;;;14.73;28.99;93777.59;4982034;28;20057;-66
2022/01/07 08:58:30;;;;;;;204.10;168.55;;;;;;;14.78;28.75;93768.97;4983169;28;20054;-65
2022/01/07 09:00:56;;;;;;;202.75;167.63;;;;;;;14.79;28.68;93773.91;4971583;28;20050;-65
2022/01/07 09:03:22;;;;;;;199.65;163.23;;;;;;;14.80;28.58;93780.03;4976725;28;20056;-66
2022/01/07 09:05:48;;;;;;;196.60;162.90;;;;;;;14.87;28.71;93770.97;4977075;28;20181;-65
2022/01/07 09:08:14;;;;;;;201.48;166.73;;;;;;;14.95;28.74;93770.25;4985461;28;20742;-66
2022/01/07 09:10:41;;;;;;;210.05;170.32;;;;;;;15.01;28.78;93775.81;4978068;28;20049;-65
2022/01/07 09:13:07;;;;;;;201.30;161.68;;;;;;;14.41;28.76;93778.66;4979694;28;20137;-65
2022/01/07 09:15:33;;;;;;;197.55;159.90;;;;;;;14.67;28.62;93784.72;4979805;28;20053;-65
2022/01/07 09:17:59;;;;;;;198.27;161.43;;;;;;;14.86;28.82;93783.66;4985233;28;20034;-68
2022/01/07 09:20:25;;;;;;;211.18;173.10;;;;;;;14.94;28.44;93778.78;4974901;28;20062;-67
2022/01/07 09:22:51;;;;;;;202.32;164.90;;;;;;;14.87;28.39;93777.09;4977805;28;20050;-70
2022/01/07 09:25:17;;;;;;;207.65;168.77;;;;;;;14.06;26.80;93777.91;4980160;28;20481;-67
2022/01/07 09:27:43;;;;;;;201.48;165.13;;;;;;;14.14;28.31;93769.16;4973212;28;20043;-67
2022/01/07 09:30:11;;;;;;;202.57;163.30;;;;;;;14.53;28.33;93775.19;4978585;28;20038;-68
2022/01/07 09:32:37;;;;;;;207.50;169.90;;;;;;;14.74;28.43;93768.31;4983267;28;20136;-66
2022/01/07 09:35:04;;;;;;;201.82;164.80;;;;;;;14.88;28.52;93762.44;4976584;28;20042;-67
2022/01/07 09:37:30;;;;;;;203.95;164.80;;;;;;;14.94;28.63;93765.31;4982132;28;20038;-69
2022/01/07 09:39:55;;;;;;;202.23;166.20;;;;;;;14.97;28.58;93759.78;4984960;28;20065;-69
2022/01/07 09:42:21;;;;;;;201.40;166.10;;;;;;;15.00;28.77;93760.84;4985029;28;20053;-66
2022/01/07 09:44:47;;;;;;;209.68;170.20;;;;;;;15.01;28.71;93754.28;4979088;28;20081;-66
2022/01/07 09:47:13;;;;;;;193.40;159.90;;;;;;;15.04;28.92;93750.69;4987019;28;20050;-66
2022/01/07 09:49:40;;;;;;;198.30;163.82;;;;;;;15.04;28.94;93742.63;4987124;28;20104;-72
2022/01/07 09:52:07;;;;;;;200.57;163.10;;;;;;;15.07;29.25;93744.44;4989472;28;20047;-67
2022/01/07 09:54:36;;;;;;;204.73;166.35;;;;;;;15.07;29.07;93739.03;4981450;28;20038;-66
2022/01/07 09:57:04;;;;;;;200.10;164.20;;;;;;;15.09;29.38;93739.34;4984186;28;20089;-67
2022/01/07 09:59:30;;;;;;;198.20;166.15;;;;;;;15.10;29.44;93738.16;5003528;28;20058;-69
2022/01/07 10:02:07;;;;;;;199.82;165.82;;;;;;;15.10;29.39;93730.84;4984306;28;20050;-68
2022/01/07 10:04:35;;;;;;;196.30;162.48;;;;;;;15.10;29.51;93730.09;4980913;28;20054;-68
2022/01/07 10:07:21;;;;;;;228.82;187.00;;;;;;;15.11;29.63;93720.81;4974284;28;20054;-68
2022/01/07 10:10:17;;;;;;;235.20;189.02;;;;;;;15.12;29.57;93723.06;4960076;28;20070;-68
2022/01/07 10:13:00;;;;;;;211.95;169.77;;;;;;;15.12;29.52;93714.25;4962073;28;21025;-68
2022/01/07 10:15:29;;;;;;;231.77;184.85;;;;;;;15.13;29.47;93710.34;4968179;28;20062;-68
2022/01/07 10:18:00;;;;;;;222.30;180.32;;;;;;;15.12;29.62;93709.59;4961573;28;20631;-68
2022/01/07 10:20:46;;;;;;;215.48;175.45;;;;;;;15.13;29.71;93711.09;4963933;28;21824;-68
2022/01/07 10:23:17;;;;;;;226.90;184.35;;;;;;;15.13;29.74;93699.59;4960302;28;20071;-68
2022/01/07 10:25:47;;;;;;;221.00;179.35;;;;;;;15.12;29.91;93692.69;4963454;28;20510;-67
2022/01/07 10:28:15;;;;;;;212.63;173.68;;;;;;;15.11;29.88;93691.19;4964322;28;20422;-67
2022/01/07 10:30:45;;;;;;;232.80;190.98;;;;;;;15.15;29.66;93695.25;4959107;28;20054;-68
2022/01/07 10:33:30;;;;;;;209.10;170.70;;;;;;;15.15;29.79;93694.50;4964087;28;20120;-68
2022/01/07 10:35:57;;;;;;;218.35;180.15;;;;;;;15.15;29.93;93692.56;4963672;28;20043;-68
2022/01/07 10:38:28;;;;;;;220.13;179.45;;;;;;;15.15;29.79;93695.25;4963812;28;20423;-68
2022/01/07 10:40:56;;;;;;;218.95;177.75;;;;;;;15.14;29.80;93693.75;4961500;28;20058;-69
2022/01/07 10:43:24;;;;;;;222.07;184.75;;;;;;;15.15;29.83;93684.47;4961544;28;20050;-69
2022/01/07 10:45:58;;;;;;;219.07;176.13;;;;;;;15.17;29.72;93681.34;4963859;28;20050;-69
2022/01/07 10:48:35;;;;;;;232.75;189.52;;;;;;;15.15;29.90;93676.41;4957029;28;20038;-68
2022/01/07 10:51:08;;;;;;;220.52;178.95;;;;;;;15.15;29.89;93673.72;4954623;28;20248;-70
2022/01/07 10:53:35;;;;;;;221.77;182.35;;;;;;;15.17;30.00;93670.56;4962738;28;20030;-69
2022/01/07 10:56:12;;;;;;;215.80;177.13;;;;;;;15.19;29.76;93664.75;4965162;28;20081;-69
2022/01/07 10:58:46;;;;;;;230.10;187.82;;;;;;;15.19;30.01;93665.50;4954519;28;20058;-69
2022/01/07 11:01:21;;;;;;;222.75;183.48;;;;;;;15.19;30.05;93662.03;4959691;28;20063;-68
2022/01/07 11:03:48;;;;;;;224.63;183.57;;;;;;;15.18;29.89;93658.59;4965984;28;20145;-70
2022/01/07 11:06:14;;;;;;;229.70;184.73;;;;;;;15.13;30.03;93648.41;4962958;28;20053;-71
2022/01/07 11:08:40;;;;;;;218.38;180.30;;;;;;;15.14;29.82;93647.97;4965806;28;20050;-69